Time;durP1;ratioP1;P1;durP2;ratioP2;P2;SDS_P1;SDS_P2;PMS_P1;PMS_P2;Temp;Humidity;BMP_temperature;BMP_pressure;BME280_temperature;BME280_humidity;BME280_pressure;Samples;Min_cycle;Max_cycle;Signal;HPM_P1;HPM_P2
2022/09/29 00:00:03;;;;;;;8.40;4.60;;;;;;;10.24;74.49;99135.66;4163884;28;20041;-59
2022/09/29 00:02:06;;;;;;;9.45;5.82;;;;;;;10.25;75.00;99130.47;4163829;28;20124;-60
2022/09/29 00:04:13;;;;;;;12.48;7.20;;;;;;;10.22;74.55;99129.59;4145621;28;20092;-60
2022/09/29 00:06:18;;;;;;;12.60;6.97;;;;;;;10.22;74.93;99130.47;4146268;28;20046;-60
2022/09/29 00:08:22;;;;;;;;;;;;;;;10.06;75.27;99134.91;4164231;28;20092;-60
2022/09/29 00:10:25;;;;;;;10.43;7.80;;;;;;;10.13;74.81;99131.41;4146296;28;19964;-60
2022/09/29 00:12:28;;;;;;;15.98;9.40;;;;;;;10.13;74.89;99135.69;4150504;28;20104;-60
2022/09/29 00:14:31;;;;;;;13.13;7.82;;;;;;;10.10;75.56;99128.81;4179166;28;20433;-60
2022/09/29 00:16:35;;;;;;;13.35;9.05;;;;;;;10.10;75.14;99131.41;4183446;28;20049;-60
2022/09/29 00:18:39;;;;;;;14.48;10.00;;;;;;;10.10;75.61;99130.53;4165622;28;20034;-60
2022/09/29 00:20:42;;;;;;;14.48;10.45;;;;;;;10.14;75.17;99125.31;4183391;28;20054;-60
2022/09/29 00:22:44;;;;;;;12.50;8.98;;;;;;;10.16;74.82;99122.69;4183387;28;20090;-60
2022/09/29 00:24:48;;;;;;;11.75;8.70;;;;;;;10.19;75.10;99120.13;4182558;28;20554;-60
2022/09/29 00:26:50;;;;;;;14.65;8.95;;;;;;;10.19;74.39;99127.03;4183361;28;20033;-60
2022/09/29 00:28:56;;;;;;;10.27;7.88;;;;;;;10.17;75.04;99120.97;4183253;28;20131;-60
2022/09/29 00:31:00;;;;;;;12.90;9.02;;;;;;;10.15;75.05;99128.78;4182918;28;20435;-60
2022/09/29 00:33:04;;;;;;;12.23;8.63;;;;;;;10.04;75.46;99131.41;4183099;28;20507;-60
2022/09/29 00:35:09;;;;;;;16.80;9.43;;;;;;;10.01;74.86;99126.25;4182658;28;20643;-60
2022/09/29 00:37:12;;;;;;;17.15;9.63;;;;;;;10.02;75.43;99130.56;4183064;28;20083;-60
2022/09/29 00:39:15;;;;;;;20.02;12.20;;;;;;;10.05;74.96;99132.31;4165197;28;20053;-59
2022/09/29 00:41:23;;;;;;;15.05;10.98;;;;;;;10.05;75.48;99124.50;4152498;28;20545;-60
2022/09/29 00:43:50;;;;;;;13.57;10.07;;;;;;;10.09;75.16;99136.59;4165965;28;20045;-60
2022/09/29 00:45:54;;;;;;;17.92;12.55;;;;;;;10.30;74.31;99120.03;4173543;28;20068;-59
2022/09/29 00:48:08;;;;;;;18.35;13.27;;;;;;;10.30;74.12;99118.28;4183108;28;20116;-59
2022/09/29 00:50:17;;;;;;;17.73;13.13;;;;;;;10.18;74.65;99125.28;4182734;28;20041;-60
2022/09/29 00:52:25;;;;;;;14.73;10.82;;;;;;;10.12;75.54;99121.00;4148672;28;20093;-60
2022/09/29 00:54:33;;;;;;;19.15;12.63;;;;;;;10.16;75.28;99125.28;4164215;28;20049;-60
2022/09/29 00:56:38;;;;;;;13.90;10.13;;;;;;;10.12;75.77;99121.00;4165323;28;20045;-61
2022/09/29 00:58:44;;;;;;;18.08;13.68;;;;;;;10.10;75.07;99122.75;4183171;28;20041;-60
2022/09/29 01:00:47;;;;;;;18.70;12.90;;;;;;;10.14;75.68;99114.91;4182517;28;20037;-60
2022/09/29 01:02:55;;;;;;;15.38;11.63;;;;;;;10.14;75.07;99112.31;4182468;28;20096;-60
2022/09/29 01:05:01;;;;;;;15.25;12.43;;;;;;;10.08;75.21;99117.56;4181815;28;20486;-60
2022/09/29 01:07:04;;;;;;;20.27;13.02;;;;;;;10.13;75.87;99113.22;4164868;28;20041;-60
2022/09/29 01:09:11;;;;;;;19.05;13.70;;;;;;;10.13;75.66;99115.81;4182772;28;20053;-60
2022/09/29 01:11:15;;;;;;;39.20;24.73;;;;;;;10.12;76.05;99108.03;4161368;28;20048;-60
2022/09/29 01:13:19;;;;;;;26.08;16.02;;;;;;;9.97;76.32;99116.75;4182577;28;20513;-60
2022/09/29 01:15:22;;;;;;;24.50;16.52;;;;;;;9.94;75.45;99115.06;4182124;28;20091;-60
2022/09/29 01:17:25;;;;;;;28.95;18.17;;;;;;;9.94;75.71;99108.97;4148200;28;20500;-60
2022/09/29 01:19:39;;;;;;;35.05;18.33;;;;;;;10.01;75.65;99118.47;4164607;28;20141;-60
2022/09/29 01:21:55;;;;;;;20.10;13.65;;;;;;;9.99;75.31;99111.53;4148290;28;20050;-59
2022/09/29 01:24:33;;;;;;;33.38;16.30;;;;;;;9.92;76.04;99113.31;4181672;28;20548;-59
2022/09/29 01:27:14;;;;;;;39.95;22.00;;;;;;;9.82;76.53;99114.25;4158858;28;20049;-60
2022/09/29 01:29:49;;;;;;;55.65;28.10;;;;;;;9.73;76.73;99117.72;4182038;28;20087;-60
2022/09/29 01:31:57;;;;;;;27.75;17.10;;;;;;;9.74;76.78;99122.91;4172181;28;20114;-60
2022/09/29 01:34:08;;;;;;;22.88;13.80;;;;;;;9.76;77.50;99118.56;4181598;28;20045;-60
2022/09/29 01:36:19;;;;;;;18.85;12.15;;;;;;;9.73;77.60;99120.34;4182050;28;20502;-60
2022/09/29 01:38:41;;;;;;;15.68;11.30;;;;;;;9.68;77.16;99122.94;4164177;28;20042;-60
2022/09/29 01:40:53;;;;;;;19.08;13.73;;;;;;;9.70;77.58;99123.78;4182158;28;20048;-60
2022/09/29 01:43:04;;;;;;;18.90;12.02;;;;;;;9.73;77.52;99121.19;4164360;28;20617;-60
2022/09/29 01:45:15;;;;;;;20.13;14.20;;;;;;;9.79;77.68;99123.75;4181075;28;20036;-60
2022/09/29 01:47:23;;;;;;;37.40;21.90;;;;;;;9.82;77.74;99114.25;4182196;28;20040;-60
2022/09/29 01:49:31;;;;;;;27.98;17.92;;;;;;;9.86;77.28;99115.97;4182107;28;20155;-60
2022/09/29 01:51:40;;;;;;;22.13;15.77;;;;;;;9.95;77.39;99119.34;4181606;28;20052;-60
2022/09/29 01:53:47;;;;;;;17.65;13.05;;;;;;;9.99;76.75;99117.63;4181178;28;20102;-60
2022/09/29 01:55:53;;;;;;;25.88;16.52;;;;;;;10.04;77.24;99120.19;4181652;28;20114;-60
2022/09/29 01:58:00;;;;;;;64.20;32.35;;;;;;;9.95;77.29;99121.09;4181889;28;20045;-60
2022/09/29 02:00:07;;;;;;;184.43;76.47;;;;;;;9.88;77.09;99125.44;4163944;28;20041;-60
2022/09/29 02:02:24;;;;;;;105.20;47.33;;;;;;;9.86;77.08;99122.00;4181659;28;20509;-60
2022/09/29 02:04:31;;;;;;;63.63;32.60;;;;;;;9.89;77.26;99116.78;4163454;28;20128;-60
2022/09/29 02:06:42;;;;;;;95.53;46.05;;;;;;;9.96;76.80;99128.03;4181368;28;20033;-60
2022/09/29 02:08:50;;;;;;;58.97;31.00;;;;;;;10.01;76.61;99121.06;4165902;28;20399;-60
2022/09/29 02:10:59;;;;;;;34.55;20.38;;;;;;;10.07;77.06;99121.00;4165209;28;20047;-60
2022/09/29 02:13:07;;;;;;;33.55;18.58;;;;;;;10.07;76.50;99128.81;4181735;28;20033;-60
2022/09/29 02:15:13;;;;;;;31.58;20.58;;;;;;;10.09;76.56;99126.19;4181288;28;20045;-60
2022/09/29 02:17:21;;;;;;;65.60;33.08;;;;;;;9.95;76.83;99124.53;4181670;28;20041;-60
2022/09/29 02:19:26;;;;;;;83.63;43.83;;;;;;;9.86;77.23;99126.34;4164028;28;20534;-60
2022/09/29 02:21:29;;;;;;;32.88;22.23;;;;;;;9.95;77.04;99132.31;4181540;28;20495;-60
2022/09/29 02:23:32;;;;;;;23.38;16.75;;;;;;;10.07;76.33;99136.59;4176580;28;20450;-60
2022/09/29 02:25:39;;;;;;;19.73;14.73;;;;;;;10.09;75.83;99140.06;4147518;28;20615;-60
2022/09/29 02:27:43;;;;;;;20.25;15.90;;;;;;;10.16;76.28;99135.69;4147522;28;20046;-59
2022/09/29 02:29:46;;;;;;;15.85;11.80;;;;;;;10.12;75.60;99139.19;4164986;28;20049;-59
2022/09/29 02:31:49;;;;;;;45.85;24.42;;;;;;;9.99;76.49;99138.38;4147383;28;20542;-62
2022/09/29 02:33:54;;;;;;;22.23;15.82;;;;;;;10.02;76.67;99134.91;4146656;28;20049;-60
2022/09/29 02:36:11;;;;;;;22.05;15.68;;;;;;;10.07;76.09;99130.56;4147453;28;20045;-59
2022/09/29 02:38:25;;;;;;;18.92;12.18;;;;;;;10.06;76.31;99128.81;4164729;28;20430;-59
2022/09/29 02:40:39;;;;;;;17.60;12.13;;;;;;;9.91;76.73;99130.63;4164835;28;20068;-59
2022/09/29 02:42:55;;;;;;;26.00;15.05;;;;;;;9.89;76.46;99132.38;4164780;28;20132;-59
2022/09/29 02:45:18;;;;;;;41.22;22.80;;;;;;;9.83;76.89;99131.50;4146506;28;20041;-59
2022/09/29 02:47:44;;;;;;;49.55;27.00;;;;;;;9.87;76.99;99134.13;4164587;28;20037;-59
2022/09/29 02:50:03;;;;;;;25.83;16.80;;;;;;;9.93;76.54;99133.22;4164737;28;20545;-59
2022/09/29 02:52:17;;;;;;;18.20;12.07;;;;;;;9.88;77.16;99134.97;4164720;28;20213;-60
2022/09/29 02:54:35;;;;;;;19.25;12.80;;;;;;;9.87;77.39;99130.63;4163861;28;20119;-60
2022/09/29 02:56:45;;;;;;;19.50;13.63;;;;;;;9.93;76.74;99128.88;4164568;28;20495;-59
2022/09/29 02:58:54;;;;;;;55.45;28.85;;;;;;;9.89;77.31;99136.69;4164547;28;20526;-59
2022/09/29 03:00:58;;;;;;;24.35;17.63;;;;;;;9.91;77.12;99141.00;4158137;28;20045;-59
2022/09/29 03:03:00;;;;;;;17.88;12.75;;;;;;;9.90;76.96;99135.81;4180919;28;20139;-60
2022/09/29 03:05:08;;;;;;;27.15;17.98;;;;;;;9.95;77.03;99141.88;4162215;28;20049;-60
2022/09/29 03:07:11;;;;;;;18.75;14.77;;;;;;;9.94;76.59;99141.00;4181025;28;20037;-60
2022/09/29 03:09:14;;;;;;;20.60;14.32;;;;;;;9.91;76.89;99138.41;4162846;28;20049;-60
2022/09/29 03:11:17;;;;;;;23.33;14.85;;;;;;;9.93;76.66;99138.44;4180455;28;20420;-60
2022/09/29 03:13:20;;;;;;;24.95;16.35;;;;;;;9.95;76.33;99134.06;4178577;28;20431;-60
2022/09/29 03:15:23;;;;;;;19.20;14.02;;;;;;;9.95;76.94;99127.13;4180733;28;20119;-60
2022/09/29 03:17:26;;;;;;;18.92;13.32;;;;;;;9.96;76.66;99133.22;4162961;28;20506;-60
2022/09/29 03:19:29;;;;;;;63.25;32.75;;;;;;;9.97;76.63;99132.31;4162954;28;20060;-60
2022/09/29 03:21:33;;;;;;;30.63;20.63;;;;;;;10.01;77.04;99126.25;4180765;28;20529;-60
2022/09/29 03:23:35;;;;;;;67.13;34.28;;;;;;;9.95;77.14;99134.06;4179221;28;20110;-60
2022/09/29 03:25:39;;;;;;;45.15;23.98;;;;;;;9.94;76.93;99128.03;4180702;28;20052;-59
2022/09/29 03:27:42;;;;;;;27.00;16.70;;;;;;;9.91;76.87;99124.56;4180689;28;20040;-62
2022/09/29 03:29:45;;;;;;;16.92;12.38;;;;;;;9.93;77.53;99130.63;4180518;28;20041;-59
2022/09/29 03:31:48;;;;;;;19.45;14.40;;;;;;;9.98;76.85;99136.66;4180595;28;20422;-60
2022/09/29 03:33:51;;;;;;;23.08;15.43;;;;;;;9.99;77.05;99129.72;4179759;28;20486;-60
2022/09/29 03:35:54;;;;;;;24.35;15.60;;;;;;;10.06;76.02;99129.69;4180571;28;20045;-59
2022/09/29 03:37:59;;;;;;;21.70;13.70;;;;;;;10.07;76.36;99131.41;4180515;28;20045;-59
2022/09/29 03:40:03;;;;;;;20.67;15.63;;;;;;;10.04;76.02;99140.97;4180056;28;20491;-59
2022/09/29 03:42:06;;;;;;;24.83;17.08;;;;;;;10.08;76.52;99127.94;4162579;28;20041;-59
2022/09/29 03:44:08;;;;;;;22.63;16.92;;;;;;;10.10;76.00;99134.00;4161976;28;20139;-59
2022/09/29 03:46:11;;;;;;;44.40;25.80;;;;;;;10.00;76.83;99127.09;4162359;28;20080;-59
2022/09/29 03:48:15;;;;;;;31.92;20.50;;;;;;;9.97;76.66;99124.53;4180161;28;20300;-60
2022/09/29 03:50:18;;;;;;;27.58;19.10;;;;;;;10.02;76.66;99127.13;4174473;28;20095;-59
2022/09/29 03:52:20;;;;;;;22.05;15.48;;;;;;;10.12;76.11;99121.00;4167454;28;20087;-60
2022/09/29 03:54:26;;;;;;;21.20;15.70;;;;;;;10.05;76.32;99127.13;4179719;28;20037;-59
2022/09/29 03:56:29;;;;;;;21.90;14.93;;;;;;;10.01;76.58;99125.41;4180804;28;20069;-60
2022/09/29 03:58:32;;;;;;;24.73;17.77;;;;;;;10.06;76.60;99127.09;4165380;28;20037;-59
2022/09/29 04:00:34;;;;;;;26.38;18.55;;;;;;;10.14;76.01;99127.06;4183259;28;20033;-59
2022/09/29 04:02:37;;;;;;;26.90;18.58;;;;;;;10.13;76.78;99126.19;4175825;28;20080;-60
2022/09/29 04:04:40;;;;;;;29.13;19.90;;;;;;;10.16;75.85;99132.22;4169392;28;20042;-60
2022/09/29 04:06:43;;;;;;;24.77;19.33;;;;;;;10.11;76.26;99127.91;4179337;28;20041;-59
2022/09/29 04:08:48;;;;;;;27.25;17.98;;;;;;;10.11;76.45;99127.06;4167163;28;20072;-59
2022/09/29 04:10:52;;;;;;;25.05;18.98;;;;;;;10.11;76.54;99127.06;4171946;28;20044;-60
2022/09/29 04:12:55;;;;;;;26.38;17.90;;;;;;;10.06;76.79;99126.22;4164507;28;20530;-59
2022/09/29 04:14:57;;;;;;;29.17;18.65;;;;;;;10.07;76.69;99125.34;4179235;28;20044;-59
2022/09/29 04:17:00;;;;;;;24.33;17.75;;;;;;;10.09;76.39;99127.09;4144939;28;20078;-59
2022/09/29 04:19:03;;;;;;;27.40;17.73;;;;;;;10.04;76.64;99131.41;4183275;28;20143;-59
2022/09/29 04:21:07;;;;;;;24.15;17.38;;;;;;;10.00;76.88;99127.09;4165843;28;20450;-59
2022/09/29 04:23:09;;;;;;;21.30;15.55;;;;;;;9.92;76.60;99126.31;4182755;28;20065;-59
2022/09/29 04:25:12;;;;;;;24.08;17.10;;;;;;;9.98;76.64;99122.81;4164666;28;20038;-60
2022/09/29 04:27:17;;;;;;;23.35;16.05;;;;;;;9.94;76.81;99140.13;4165747;28;20120;-59
2022/09/29 04:29:19;;;;;;;24.20;14.65;;;;;;;9.92;76.69;99141.88;4182612;28;20033;-59
2022/09/29 04:31:22;;;;;;;20.95;14.95;;;;;;;9.82;76.22;99135.00;4162088;28;20515;-59
2022/09/29 04:33:25;;;;;;;20.48;14.23;;;;;;;9.71;76.69;99153.19;4180934;28;20061;-59
2022/09/29 04:35:28;;;;;;;23.08;13.93;;;;;;;9.67;77.02;99147.16;4182882;28;20402;-59
2022/09/29 04:37:36;;;;;;;21.17;14.13;;;;;;;9.83;76.80;99140.19;4183058;28;20095;-59
2022/09/29 04:39:39;;;;;;;23.30;16.05;;;;;;;9.91;75.96;99145.34;4182747;28;20037;-59
2022/09/29 04:41:42;;;;;;;27.75;16.15;;;;;;;9.82;76.24;99147.97;4181509;28;20037;-59
2022/09/29 04:43:46;;;;;;;21.42;15.15;;;;;;;9.75;77.06;99145.41;4181968;28;20037;-63
2022/09/29 04:45:49;;;;;;;18.55;12.70;;;;;;;9.76;76.52;99154.91;4183022;28;20502;-61
2022/09/29 04:47:52;;;;;;;26.67;15.88;;;;;;;9.67;77.09;99149.75;4183027;28;20120;-59
2022/09/29 04:49:54;;;;;;;23.73;13.63;;;;;;;9.69;76.98;99144.56;4182012;28;20132;-59
2022/09/29 04:51:57;;;;;;;19.45;14.18;;;;;;;9.64;77.17;99144.59;4183122;28;20072;-60
2022/09/29 04:54:00;;;;;;;26.15;13.32;;;;;;;9.66;77.72;99147.16;4182714;28;20033;-59
2022/09/29 04:56:06;;;;;;;19.65;12.45;;;;;;;9.66;77.62;99154.94;4181816;28;20045;-59
2022/09/29 04:58:09;;;;;;;21.52;13.00;;;;;;;9.58;77.65;99158.44;4165044;28;20112;-59
2022/09/29 05:00:14;;;;;;;22.15;12.93;;;;;;;9.51;78.27;99161.06;4182860;28;20558;-59
2022/09/29 05:02:18;;;;;;;18.45;12.43;;;;;;;9.44;78.25;99161.03;4165198;28;20478;-59
2022/09/29 05:04:21;;;;;;;21.20;12.57;;;;;;;9.58;77.76;99167.97;4180788;28;20135;-59
2022/09/29 05:06:24;;;;;;;20.42;13.20;;;;;;;9.70;77.15;99162.72;4148604;28;20297;-59
2022/09/29 05:08:27;;;;;;;15.07;10.93;;;;;;;9.64;77.07;99164.47;4182830;28;20049;-60
2022/09/29 05:10:30;;;;;;;16.92;12.27;;;;;;;9.47;77.65;99167.13;4182720;28;20498;-59
2022/09/29 05:12:33;;;;;;;21.30;14.85;;;;;;;9.47;77.68;99167.97;4182712;28;20041;-59
2022/09/29 05:14:35;;;;;;;24.40;16.25;;;;;;;9.64;76.98;99173.13;4180673;28;20099;-59
2022/09/29 05:16:39;;;;;;;20.30;14.60;;;;;;;9.65;77.49;99174.88;4182667;28;20505;-60
2022/09/29 05:18:42;;;;;;;22.60;13.93;;;;;;;9.84;77.07;99170.47;4182579;28;20411;-59
2022/09/29 05:20:45;;;;;;;23.20;13.80;;;;;;;9.77;76.67;99168.75;4181470;28;20045;-59
2022/09/29 05:23:08;;;;;;;21.17;13.10;;;;;;;9.75;76.75;99166.19;4182207;28;20075;-59
2022/09/29 05:25:12;;;;;;;20.50;13.55;;;;;;;9.86;76.63;99165.28;4182129;28;20056;-59
2022/09/29 05:27:14;;;;;;;22.98;14.35;;;;;;;9.93;76.19;99167.84;4182402;28;20041;-60
2022/09/29 05:29:17;;;;;;;20.50;13.25;;;;;;;9.91;75.94;99166.09;4182326;28;20033;-59
2022/09/29 05:31:20;;;;;;;22.20;14.30;;;;;;;9.85;75.86;99166.13;4164707;28;20049;-59
2022/09/29 05:33:24;;;;;;;22.88;12.75;;;;;;;9.85;76.17;99166.97;4181579;28;20132;-60
2022/09/29 05:35:27;;;;;;;19.25;12.05;;;;;;;9.78;76.82;99162.69;4164645;28;20462;-60
2022/09/29 05:37:30;;;;;;;21.85;14.25;;;;;;;9.79;76.41;99173.06;4182299;28;20111;-59
2022/09/29 05:39:33;;;;;;;19.55;11.52;;;;;;;9.77;76.42;99174.81;4182329;28;20040;-59
2022/09/29 05:41:36;;;;;;;21.33;11.77;;;;;;;9.76;76.96;99170.47;4181111;28;20523;-60
2022/09/29 05:43:41;;;;;;;17.65;10.60;;;;;;;9.77;76.95;99174.81;4181406;28;20518;-59
2022/09/29 05:45:43;;;;;;;20.52;11.57;;;;;;;9.82;76.99;99177.38;4182239;28;20048;-59
2022/09/29 05:47:46;;;;;;;19.88;12.77;;;;;;;9.84;76.67;99174.78;4182150;28;20410;-60
2022/09/29 05:49:50;;;;;;;18.65;12.00;;;;;;;9.84;77.12;99178.25;4182199;28;20505;-60
2022/09/29 05:51:53;;;;;;;20.77;12.90;;;;;;;9.86;76.81;99181.69;4182097;28;20037;-59
2022/09/29 05:53:56;;;;;;;16.27;11.27;;;;;;;9.83;77.10;99178.25;4181289;28;20037;-60
2022/09/29 05:56:03;;;;;;;16.95;11.02;;;;;;;9.81;76.99;99183.44;4182160;28;20120;-60
2022/09/29 05:58:06;;;;;;;19.08;13.52;;;;;;;9.97;76.37;99186.84;4180806;28;20140;-59
2022/09/29 06:00:10;;;;;;;17.67;12.80;;;;;;;9.90;75.85;99190.31;4147795;28;20046;-60
2022/09/29 06:02:15;;;;;;;22.08;14.43;;;;;;;10.03;75.92;99191.16;4164266;28;20140;-60
2022/09/29 06:04:18;;;;;;;20.42;13.63;;;;;;;9.99;75.84;99185.13;4181093;28;20036;-60
2022/09/29 06:06:24;;;;;;;20.08;13.43;;;;;;;10.10;75.87;99183.34;4180629;28;20068;-59
2022/09/29 06:08:27;;;;;;;20.90;14.27;;;;;;;10.06;75.62;99189.41;4181874;28;20426;-60
2022/09/29 06:10:30;;;;;;;16.67;11.05;;;;;;;9.92;75.72;99188.59;4181920;28;20045;-59
2022/09/29 06:12:36;;;;;;;18.00;12.90;;;;;;;9.72;76.71;99199.03;4181191;28;20437;-59
2022/09/29 06:14:43;;;;;;;22.45;13.02;;;;;;;9.71;76.55;99194.72;4181004;28;20048;-60
2022/09/29 06:16:46;;;;;;;24.67;14.98;;;;;;;9.95;76.28;99198.97;4181699;28;20041;-59
2022/09/29 06:18:49;;;;;;;22.38;15.18;;;;;;;9.96;75.73;99204.16;4181628;28;20094;-59
2022/09/29 06:20:52;;;;;;;23.08;14.15;;;;;;;9.96;76.42;99200.72;4181673;28;20044;-59
2022/09/29 06:22:56;;;;;;;20.75;14.55;;;;;;;9.92;76.75;99196.41;4180440;28;20120;-60
2022/09/29 06:24:59;;;;;;;22.42;13.80;;;;;;;9.92;76.26;99201.59;4180788;28;20409;-59
2022/09/29 06:27:02;;;;;;;20.92;14.85;;;;;;;10.00;76.00;99206.75;4181495;28;20037;-59
2022/09/29 06:29:05;;;;;;;25.15;14.45;;;;;;;9.94;76.49;99194.66;4181512;28;20521;-60
2022/09/29 06:31:11;;;;;;;21.02;14.40;;;;;;;10.05;75.90;99198.06;4181472;28;20491;-60
2022/09/29 06:33:14;;;;;;;20.52;12.75;;;;;;;10.09;75.83;99196.31;4163357;28;20057;-60
2022/09/29 06:37:38;;;;;;;17.30;11.20;;;;;;;10.06;75.70;99194.63;4181399;28;20076;-59
2022/09/29 06:39:42;;;;;;;18.88;11.63;;;;;;;10.00;75.82;99204.16;4181290;28;20036;-60
2022/09/29 06:41:52;;;;;;;17.88;11.30;;;;;;;10.05;75.75;99194.63;4181313;28;20044;-60
2022/09/29 06:43:55;;;;;;;21.63;12.27;;;;;;;10.01;76.23;99206.75;4180506;28;20048;-60
2022/09/29 06:45:58;;;;;;;18.98;12.70;;;;;;;10.14;75.82;99191.97;4181235;28;20037;-59
2022/09/29 06:48:02;;;;;;;20.10;13.43;;;;;;;10.25;75.62;99198.00;4181204;28;20044;-60
2022/09/29 06:50:06;;;;;;;19.13;13.35;;;;;;;10.23;75.80;99194.50;4181199;28;20116;-59
2022/09/29 06:52:19;;;;;;;20.58;13.32;;;;;;;10.21;75.40;99195.41;4181256;28;20128;-59
2022/09/29 06:54:24;;;;;;;24.17;13.67;;;;;;;10.21;75.50;99204.06;4179197;28;20072;-59
2022/09/29 06:56:29;;;;;;;21.80;13.50;;;;;;;10.28;74.98;99197.13;4181080;28;20044;-59
2022/09/29 06:58:31;;;;;;;23.02;13.25;;;;;;;10.24;75.36;99205.78;4181036;28;20037;-60
2022/09/29 07:00:35;;;;;;;17.27;12.02;;;;;;;10.16;75.57;99208.41;4180983;28;20036;-59
2022/09/29 07:02:38;;;;;;;21.27;14.05;;;;;;;10.22;75.47;99200.59;4180950;28;20052;-59
2022/09/29 07:04:40;;;;;;;23.38;12.60;;;;;;;10.04;75.98;99206.72;4180210;28;20462;-59
2022/09/29 07:06:44;;;;;;;20.00;12.27;;;;;;;9.99;76.46;99211.09;4181030;28;20453;-60
2022/09/29 07:08:47;;;;;;;23.13;14.57;;;;;;;10.10;75.80;99211.91;4180930;28;20049;-60
2022/09/29 07:10:50;;;;;;;18.02;9.48;;;;;;;10.04;76.29;99209.31;4180858;28;20341;-59
2022/09/29 07:12:54;;;;;;;17.20;10.13;;;;;;;10.11;76.53;99212.75;4180844;28;20041;-59
2022/09/29 07:14:57;;;;;;;22.65;12.40;;;;;;;10.01;76.35;99211.94;4162451;28;20037;-60
2022/09/29 07:17:00;;;;;;;16.85;9.95;;;;;;;9.93;76.44;99217.16;4180818;28;20037;-59
2022/09/29 07:19:03;;;;;;;15.60;10.27;;;;;;;9.92;76.99;99209.38;4180930;28;20037;-60
2022/09/29 07:21:08;;;;;;;14.02;8.90;;;;;;;9.94;76.82;99218.00;4180688;28;20044;-60
2022/09/29 07:23:12;;;;;;;16.58;9.65;;;;;;;10.01;76.88;99214.53;4162006;28;20045;-60
2022/09/29 07:25:15;;;;;;;14.75;9.88;;;;;;;10.05;76.03;99213.66;4146511;28;20050;-60
2022/09/29 07:27:38;;;;;;;13.95;9.15;;;;;;;10.10;76.16;99224.91;4180735;28;20045;-60
2022/09/29 07:29:42;;;;;;;18.63;11.60;;;;;;;10.21;75.51;99219.66;4180755;28;20044;-59
2022/09/29 07:31:54;;;;;;;14.20;9.30;;;;;;;10.18;75.45;99223.97;4162996;28;20045;-59
2022/09/29 07:33:57;;;;;;;15.38;9.95;;;;;;;10.24;75.87;99218.78;4178574;28;20045;-59
2022/09/29 07:36:00;;;;;;;19.00;11.27;;;;;;;10.40;75.85;99219.59;4162940;28;20067;-59
2022/09/29 07:38:03;;;;;;;18.83;12.30;;;;;;;10.55;74.33;99216.06;4180608;28;20051;-60
2022/09/29 07:40:07;;;;;;;18.25;11.73;;;;;;;10.53;74.34;99222.97;4180493;28;20383;-60
2022/09/29 07:42:10;;;;;;;14.65;10.18;;;;;;;10.47;75.22;99224.75;4180573;28;20049;-64
2022/09/29 07:44:13;;;;;;;16.20;10.07;;;;;;;10.40;75.49;99224.78;4179730;28;20430;-63
2022/09/29 07:46:17;;;;;;;15.77;9.85;;;;;;;10.41;75.57;99234.28;4179395;28;20037;-60
2022/09/29 07:48:20;;;;;;;23.13;12.63;;;;;;;10.45;75.11;99236.91;4180487;28;20037;-60
2022/09/29 07:50:23;;;;;;;17.38;10.95;;;;;;;10.51;74.54;99233.38;4180510;28;20506;-59
2022/09/29 07:52:26;;;;;;;21.33;14.00;;;;;;;10.53;75.03;99236.84;4180438;28;20037;-59
2022/09/29 07:54:29;;;;;;;18.17;13.25;;;;;;;10.57;74.69;99232.47;4179645;28;20140;-60
2022/09/29 07:56:34;;;;;;;17.30;11.60;;;;;;;10.53;75.55;99236.84;4180538;28;20053;-59
2022/09/29 07:58:38;;;;;;;17.88;12.23;;;;;;;10.50;75.56;99235.97;4180446;28;20037;-59
2022/09/29 08:00:41;;;;;;;16.70;10.25;;;;;;;10.51;76.20;99240.31;4180664;28;20033;-59
2022/09/29 08:02:46;;;;;;;14.70;9.52;;;;;;;10.51;75.56;99235.13;4180581;28;20040;-59
2022/09/29 08:04:48;;;;;;;19.77;12.90;;;;;;;10.49;75.62;99240.31;4161987;28;20080;-60
2022/09/29 08:06:51;;;;;;;20.00;12.35;;;;;;;10.61;75.54;99248.03;4178898;28;20103;-60
2022/09/29 08:08:55;;;;;;;18.13;11.30;;;;;;;10.67;74.82;99247.16;4180339;28;20033;-59
2022/09/29 08:11:08;;;;;;;16.88;9.90;;;;;;;10.63;74.84;99241.13;4179127;28;20128;-59
2022/09/29 08:13:14;;;;;;;18.10;12.20;;;;;;;10.65;74.73;99243.72;4179964;28;20067;-59
2022/09/29 08:15:17;;;;;;;17.13;10.35;;;;;;;10.68;74.98;99254.09;4179259;28;20033;-59
2022/09/29 08:17:19;;;;;;;16.00;9.82;;;;;;;10.68;74.79;99251.47;4180326;28;20095;-60
2022/09/29 08:19:24;;;;;;;15.80;11.30;;;;;;;10.69;75.40;99253.22;4180276;28;20051;-59
2022/09/29 08:21:28;;;;;;;18.55;12.13;;;;;;;10.79;74.56;99254.00;4180147;28;20380;-59
2022/09/29 08:23:31;;;;;;;20.90;11.65;;;;;;;10.85;74.33;99255.72;4178117;28;22122;-59
2022/09/29 08:25:35;;;;;;;15.00;8.60;;;;;;;10.81;74.08;99257.47;4180310;28;20033;-60
2022/09/29 08:27:37;;;;;;;15.02;9.40;;;;;;;10.80;74.55;99256.59;4180170;28;20041;-60
2022/09/29 08:29:56;;;;;;;17.63;10.23;;;;;;;10.85;74.92;99255.72;4180269;28;20530;-60
2022/09/29 08:31:59;;;;;;;15.45;10.68;;;;;;;10.86;75.36;99257.44;4162451;28;20037;-60
2022/09/29 08:34:02;;;;;;;13.80;10.15;;;;;;;10.87;74.60;99267.84;4179394;28;20037;-60
2022/09/29 08:36:13;;;;;;;16.48;11.13;;;;;;;10.86;73.90;99262.66;4182793;28;20045;-60
2022/09/29 08:38:16;;;;;;;15.20;10.63;;;;;;;10.94;74.32;99271.28;4182033;28;20048;-60
2022/09/29 08:40:18;;;;;;;12.32;8.77;;;;;;;10.92;74.95;99266.09;4165420;28;20048;-60
2022/09/29 08:42:29;;;;;;;13.77;9.35;;;;;;;10.97;75.05;99272.09;4165636;28;20044;-60
2022/09/29 08:44:53;;;;;;;13.50;8.13;;;;;;;10.99;75.58;99267.78;4164825;28;20041;-60
2022/09/29 08:47:08;;;;;;;13.60;9.05;;;;;;;10.96;75.25;99275.56;4183139;28;20495;-60
2022/09/29 08:49:18;;;;;;;13.50;9.23;;;;;;;10.99;74.86;99278.16;4165411;28;20049;-60
2022/09/29 08:51:42;;;;;;;11.73;7.97;;;;;;;11.06;74.40;99284.19;4183183;28;20033;-60
2022/09/29 08:53:47;;;;;;;15.80;8.57;;;;;;;11.16;74.51;99283.25;4182284;28;20581;-62
2022/09/29 08:56:07;;;;;;;14.27;7.90;;;;;;;11.17;73.87;99282.38;4183090;28;20495;-60
2022/09/29 08:58:13;;;;;;;13.15;8.65;;;;;;;11.29;74.08;99278.81;4182932;28;20041;-60
2022/09/29 09:00:18;;;;;;;17.15;9.52;;;;;;;11.32;73.24;99280.53;4182970;28;20057;-60
2022/09/29 09:03:03;;;;;;;13.48;9.30;;;;;;;11.35;73.30;99278.75;4182892;28;20079;-60
2022/09/29 09:05:22;;;;;;;13.95;8.65;;;;;;;11.35;73.21;99285.72;4136010;28;20052;-60
2022/09/29 09:07:34;;;;;;;16.10;8.73;;;;;;;11.26;73.21;99284.03;4182806;28;20410;-60
2022/09/29 09:09:58;;;;;;;12.20;8.52;;;;;;;11.35;73.21;99277.91;4182850;28;20045;-60
2022/09/29 09:12:18;;;;;;;14.57;9.05;;;;;;;11.17;73.50;99290.19;4182778;28;20036;-60
2022/09/29 09:14:37;;;;;;;12.98;8.82;;;;;;;11.30;72.93;99287.47;4181882;28;20041;-60
2022/09/29 09:16:54;;;;;;;12.32;7.95;;;;;;;11.43;72.42;99296.03;4182741;28;20033;-60
2022/09/29 09:19:07;;;;;;;12.70;8.30;;;;;;;11.47;72.76;99287.34;4182669;28;20044;-60
2022/09/29 09:21:16;;;;;;;11.80;8.00;;;;;;;11.49;72.67;99289.06;4148464;28;20088;-60
2022/09/29 09:23:24;;;;;;;13.32;8.27;;;;;;;11.48;72.66;99289.09;4147512;28;20077;-60
2022/09/29 09:25:31;;;;;;;14.73;8.98;;;;;;;11.43;72.85;99288.25;4182525;28;20490;-60
2022/09/29 09:27:40;;;;;;;14.27;8.25;;;;;;;11.51;72.14;99295.09;4164830;28;20060;-60
2022/09/29 09:29:44;;;;;;;14.98;8.85;;;;;;;11.54;72.78;99289.03;4182519;28;20055;-60
2022/09/29 09:31:52;;;;;;;17.70;9.43;;;;;;;11.56;72.57;99296.81;4164714;28;20041;-60
2022/09/29 09:34:00;;;;;;;16.40;9.27;;;;;;;11.55;72.48;99300.28;4164032;28;20045;-60
2022/09/29 09:36:13;;;;;;;15.52;9.25;;;;;;;11.49;71.92;99296.88;4182391;28;20049;-60
2022/09/29 09:38:40;;;;;;;13.05;8.80;;;;;;;11.54;71.97;99302.03;4182282;28;20148;-60
2022/09/29 09:40:46;;;;;;;13.30;8.65;;;;;;;11.49;72.29;99296.00;4182344;28;20041;-60
2022/09/29 09:42:54;;;;;;;16.70;8.80;;;;;;;11.55;71.66;99295.09;4182261;28;20052;-60
2022/09/29 09:45:02;;;;;;;12.95;8.63;;;;;;;11.59;71.68;99291.56;4181499;28;20044;-60
2022/09/29 09:47:17;;;;;;;13.55;8.75;;;;;;;11.66;71.36;99298.47;4163543;28;20073;-60